CheckWX is a tool to help pilots better visualize weather data.  It is not intended as a substitute for an official pre-flight weather briefing.

15:05:01 UTC

KHFF METAR
Mackall AAF Airport
Camp Mackall, North Carolina, USA
Current

32 mins ago

KHFF 231433Z AUTO 26006KT 10SM BKN018 BKN100 25/20 A3029 RMK AO2 CIG 018V044 BKN V SCT SLP270 $
Observed
May-23 @ 14:33 UTC
Wind
  • 260° at 6 KTS
Visibility
10 SM
Flight Rules
MVFR
Cloud Levels
  • Broken at 1,800' AGL
  • Broken at 10,000' AGL
Temperature
25°C / 77°F
Dewpoint
20°C / 68°F
Humidity
74%
Altimeter
30.29" Hg
Pressure
1025.72 hPa
Previous

1 hour ago

KHFF 231356Z AUTO 22005KT 10SM FEW025 FEW036 SCT041 BKN100 23/20 A3030 RMK AO2 SLP274 T02310195 $
Observed
May-23 @ 13:56 UTC
Wind
  • 220° at 5 KTS
Visibility
10 SM
Flight Rules
VFR
Cloud Levels
  • Few at 2,500' AGL
  • Few at 3,600' AGL
  • Scattered at 4,100' AGL
  • Broken at 10,000' AGL
Temperature
23°C / 73°F
Dewpoint
20°C / 68°F
Humidity
83%
Altimeter
30.3" Hg
Pressure
1026.12 hPa
Previous

1 hour ago

KHFF 231338Z AUTO 24003KT 10SM BKN030 BKN100 22/19 A3030 RMK AO2 SLP274 $
Observed
May-23 @ 13:38 UTC
Wind
  • 240° at 3 KTS
Visibility
10 SM
Flight Rules
MVFR
Cloud Levels
  • Broken at 3,000' AGL
  • Broken at 10,000' AGL
Temperature
22°C / 72°F
Dewpoint
19°C / 66°F
Humidity
83%
Altimeter
30.3" Hg
Pressure
1026.12 hPa